TPOK1: Kansas River, State-Line, KS

                                SHEF ID:       TPOK1     MARAIS DES CYGNES R NR KS-MO ST
STATION TYPE:

STAGE STAGE(2) RIV-FLOW BAT-LOAD
ft ft cfs volt
Ccp-Rev Ccp-Rev Ccp-Rev Ccp-Rev
(America/Chicago)
08/01 00:00 4.70 4.59 370 12.46
08/01 01:00 5.01 4.95 486 12.44
08/01 02:00 5.53 5.50 718 12.44
08/01 03:00 6.16 6.16 1038 12.40
08/01 04:00 6.77 6.72 1394 12.37
08/01 05:00 7.30 7.28 1719 12.36
08/01 06:00 7.72 7.76 1960 12.34
08/01 07:00 8.10 8.11 2188 12.33
08/01 08:00 8.43 8.45 2393 12.36
08/01 09:00 8.69 8.70 2559 12.68
08/01 10:00 8.91 8.91 2702 12.85
08/01 11:00 9.11 9.10 2835 12.99
08/01 12:00 9.25 9.31 2930 13.06
08/01 13:00 9.35 9.40 2998 13.50
08/01 14:00 9.46 9.48 3074 13.34
08/01 15:00 9.52 9.52 3115 13.26
08/01 16:00 9.55 9.56 3136 13.12
08/01 17:00 9.53 9.56 3122 13.06
08/01 18:00 9.51 9.53 3108 12.99
08/01 19:00 9.47 9.47 3081 12.67
08/01 20:00 9.41 9.39 3039 12.57
08/01 21:00 9.29 9.30 2957 12.53
08/01 22:00 9.18 9.19 2882 12.52
08/01 23:00 9.07 9.07 2809 12.48
Data processed at Sun 02Aug2026 04:52 GMT

NOTICE: If you are parsing this page

Please convert to using our Data API. Starting early 2026 we will be migrating to: https://water.usace.army.mil with modern pages rendered in JavaScript. When this migration completes you will no longer be able to scrape this page! CWMSDataAPI (CDA)

Timeseries IDs (TSIDs)

TSIDs used from left to right in the data table
MKSL.Stage.Inst.1Hour.0.Ccp-Rev
MKSL.Stage-Alt.Inst.1Hour.0.Ccp-Rev
MKSL.Flow.Inst.1Hour.0.Ccp-Rev
MKSL.Volt-Battery Load.Inst.1Hour.0.Ccp-Rev

                            

All information presented herein is the property of the government of the United States of America and may be revised or deleted at any time without prior notice. Dissemination of this information without the expressed written consent of the Public Affairs Office, Tulsa District U.S. Army Corps of Engineers is strictly prohibited. These data are gathered electronically and, as presented, have NOT undergone any form of quality control. These data are NOT guaranteed to be valid or correct.